createdAt,value
2023-01-13T00:00:34.922Z,88.13
2023-01-13T00:01:37.925Z,88.26
2023-01-13T00:02:40.190Z,88.47
2023-01-13T00:03:43.409Z,88.76
2023-01-13T00:04:46.520Z,88.25
2023-01-13T00:05:48.810Z,88.62
2023-01-13T00:06:52.104Z,88.87
2023-01-13T00:07:54.418Z,88.23
2023-01-13T00:08:57.286Z,88.48
2023-01-13T00:10:00.605Z,88.46
2023-01-13T00:11:02.911Z,88.82
2023-01-13T00:12:06.547Z,89.19
2023-01-13T00:13:09.017Z,89.08
2023-01-13T00:14:11.226Z,88.34
2023-01-13T00:15:14.498Z,88.51
2023-01-13T00:16:18.483Z,88.27
2023-01-13T00:17:22.534Z,88.76
2023-01-13T00:18:25.335Z,88.94
2023-01-13T00:19:27.939Z,88.52
2023-01-13T00:20:30.084Z,88.52
2023-01-13T00:21:32.213Z,88.76
2023-01-13T00:22:35.531Z,88.87
2023-01-13T00:23:39.133Z,88.91
2023-01-13T00:24:41.570Z,89.23
2023-01-13T00:25:44.861Z,89.63
2023-01-13T00:26:47.799Z,89.99
2023-01-13T00:27:50.040Z,89.90
2023-01-13T00:28:58.385Z,90.15
2023-01-13T00:30:01.028Z,89.87
2023-01-13T00:31:09.670Z,89.84
2023-01-13T00:32:11.898Z,89.93
2023-01-13T00:33:14.445Z,90.22
2023-01-13T00:34:17.888Z,89.29
2023-01-13T00:35:20.089Z,89.72
2023-01-13T00:36:22.547Z,90.11
2023-01-13T00:37:26.667Z,89.74
2023-01-13T00:38:31.477Z,89.71
2023-01-13T00:39:33.846Z,89.45
2023-01-13T00:40:37.322Z,89.28
2023-01-13T00:41:57.759Z,89.34
2023-01-13T00:43:18.835Z,89.34
2023-01-13T00:44:20.935Z,89.27
2023-01-13T00:45:23.795Z,89.83
2023-01-13T00:46:26.137Z,89.97
2023-01-13T00:47:28.274Z,89.77
2023-01-13T00:48:32.168Z,90.14
2023-01-13T00:49:34.311Z,89.81
2023-01-13T00:50:36.884Z,89.91
2023-01-13T00:51:39.144Z,89.51
2023-01-13T00:52:42.377Z,89.66
2023-01-13T00:53:47.656Z,88.93
2023-01-13T00:54:50.066Z,89.53
2023-01-13T00:57:12.612Z,89.20
2023-01-13T00:58:14.856Z,89.47
2023-01-13T00:59:17.298Z,89.38
2023-01-13T01:00:20.780Z,89.31
2023-01-13T01:01:25.383Z,90.04
2023-01-13T01:02:27.772Z,89.87
2023-01-13T01:03:30.490Z,89.75
2023-01-13T01:04:33.475Z,89.97
2023-01-13T01:05:35.608Z,89.32
2023-01-13T01:06:38.287Z,89.32
2023-01-13T01:07:40.470Z,89.42
2023-01-13T01:08:43.824Z,89.15
2023-01-13T01:09:45.956Z,88.65
2023-01-13T01:10:48.517Z,88.73
2023-01-13T01:11:50.607Z,88.61
2023-01-13T01:12:53.781Z,88.72
2023-01-13T01:13:58.764Z,88.99
2023-01-13T01:15:01.793Z,89.26
2023-01-13T01:16:06.908Z,88.84
2023-01-13T01:17:09.235Z,88.47
2023-01-13T01:18:11.894Z,88.51
2023-01-13T01:19:14.245Z,88.95
2023-01-13T01:20:16.874Z,88.89
2023-01-13T01:21:21.134Z,88.48
2023-01-13T01:22:23.203Z,88.80
2023-01-13T01:23:25.252Z,88.67
2023-01-13T01:24:27.422Z,88.84
2023-01-13T01:25:29.836Z,88.61
2023-01-13T01:26:32.794Z,88.56
2023-01-13T01:27:35.073Z,89.11
2023-01-13T01:28:39.757Z,89.60
2023-01-13T01:29:41.941Z,89.04
2023-01-13T01:30:44.278Z,89.20
2023-01-13T01:31:46.748Z,89.51
2023-01-13T01:32:49.075Z,89.52
2023-01-13T01:33:52.937Z,89.92
2023-01-13T01:34:55.154Z,89.54
2023-01-13T01:35:57.287Z,89.36
2023-01-13T01:37:00.056Z,89.93
2023-01-13T01:38:02.302Z,89.93
2023-01-13T01:39:04.928Z,90.54
2023-01-13T01:40:09.269Z,90.57
2023-01-13T01:41:17.921Z,90.13
2023-01-13T01:42:41.088Z,90.25
2023-01-13T01:44:03.011Z,90.18
2023-01-13T01:45:21.082Z,89.90
2023-01-13T01:46:24.463Z,90.25
2023-01-13T01:47:29.631Z,90.07
2023-01-13T01:48:38.163Z,89.53
2023-01-13T01:49:42.198Z,89.15
2023-01-13T01:50:44.893Z,89.11
2023-01-13T01:51:53.848Z,89.48
2023-01-13T01:52:59.698Z,89.49
2023-01-13T01:54:04.611Z,90.04
2023-01-13T01:55:16.758Z,89.31
2023-01-13T01:56:20.559Z,89.79
2023-01-13T01:57:32.371Z,90.22
2023-01-13T01:58:41.816Z,89.70
2023-01-13T01:59:45.019Z,90.18
2023-01-13T02:00:48.524Z,90.30
2023-01-13T02:01:51.347Z,89.69
2023-01-13T02:02:54.704Z,89.67
2023-01-13T02:04:00.545Z,89.91
2023-01-13T02:05:03.013Z,90.18
2023-01-13T02:06:06.432Z,89.74
2023-01-13T02:07:10.379Z,89.79
2023-01-13T02:08:14.414Z,89.65
2023-01-13T02:09:17.235Z,89.44
2023-01-13T02:10:22.984Z,89.55
2023-01-13T02:11:50.135Z,89.28
2023-01-13T02:12:53.743Z,89.75
2023-01-13T02:13:56.240Z,89.49
2023-01-13T02:15:17.188Z,90.24
2023-01-13T02:16:24.100Z,91.11
2023-01-13T02:17:43.063Z,91.62
2023-01-13T02:19:00.591Z,91.36
2023-01-13T02:20:29.542Z,90.23
2023-01-13T04:24:28.395Z,94.46
2023-01-13T04:25:31.084Z,94.07
2023-01-13T04:26:33.754Z,94.49
2023-01-13T04:27:36.056Z,94.49
2023-01-13T04:28:39.976Z,94.31
2023-01-13T04:29:42.311Z,94.91
2023-01-13T04:30:46.128Z,94.97
2023-01-13T04:31:48.537Z,95.25
2023-01-13T04:32:50.594Z,95.31
2023-01-13T04:33:52.832Z,94.83
2023-01-13T04:34:57.026Z,93.59
2023-01-13T04:35:59.244Z,93.26
2023-01-13T04:37:01.546Z,92.89
2023-01-13T04:38:06.691Z,92.35
2023-01-13T04:39:08.720Z,92.48
2023-01-13T04:40:12.007Z,92.04
2023-01-13T04:41:14.070Z,91.69
2023-01-13T04:42:16.188Z,91.11
2023-01-13T04:43:18.375Z,91.43
2023-01-13T04:44:20.499Z,91.02
2023-01-13T04:45:23.246Z,90.91
2023-01-13T04:46:26.787Z,90.66
2023-01-13T04:47:30.245Z,90.89
2023-01-13T04:48:32.484Z,90.95
2023-01-13T04:49:34.551Z,90.56
2023-01-13T04:50:36.947Z,90.30
2023-01-13T04:51:38.951Z,90.33
2023-01-13T04:52:40.889Z,90.57
2023-01-13T04:53:42.837Z,90.14
2023-01-13T04:54:45.391Z,90.14
2023-01-13T04:55:50.199Z,90.29
2023-01-13T04:56:52.576Z,90.30
2023-01-13T04:57:55.256Z,90.29
2023-01-13T04:58:58.655Z,90.57
2023-01-13T05:00:01.786Z,90.77
2023-01-13T05:01:05.137Z,91.13
2023-01-13T05:02:08.911Z,90.81
2023-01-13T05:03:11.440Z,90.26
2023-01-13T05:04:14.963Z,89.65
2023-01-13T05:05:18.343Z,90.22
2023-01-13T05:06:20.667Z,90.69
2023-01-13T05:07:22.841Z,90.63
2023-01-13T05:08:24.959Z,90.63
2023-01-13T05:09:26.843Z,90.37
2023-01-13T05:10:29.591Z,90.44
2023-01-13T05:11:50.380Z,90.58
2023-01-13T05:13:11.080Z,90.85
2023-01-13T05:14:31.577Z,91.09
2023-01-13T05:15:52.964Z,91.02
2023-01-13T05:17:02.637Z,90.79
2023-01-13T05:18:05.856Z,90.21
2023-01-13T05:19:08.054Z,91.02
2023-01-13T05:20:12.038Z,90.94
2023-01-13T05:21:32.940Z,91.22
2023-01-13T05:22:54.120Z,90.95
2023-01-13T05:24:14.651Z,90.75
2023-01-13T05:25:24.702Z,91.18
2023-01-13T05:26:27.106Z,90.85
2023-01-13T05:27:29.838Z,91.22
2023-01-13T05:28:34.167Z,90.96
2023-01-13T05:29:41.168Z,90.96
2023-01-13T05:30:46.197Z,90.65
2023-01-13T05:31:48.283Z,90.30
2023-01-13T05:32:51.446Z,90.73
2023-01-13T05:33:53.848Z,90.70
2023-01-13T05:34:56.315Z,90.25
2023-01-13T05:36:01.733Z,91.16
2023-01-13T05:37:05.933Z,90.78
2023-01-13T05:38:09.090Z,90.98
2023-01-13T05:39:11.183Z,90.81
2023-01-13T05:40:35.151Z,90.74
2023-01-13T05:41:56.200Z,91.24
2023-01-13T05:43:20.889Z,90.90
2023-01-13T05:44:23.617Z,91.07
2023-01-13T05:45:25.927Z,91.46
2023-01-13T05:46:28.385Z,91.25
2023-01-13T05:47:32.787Z,91.23
2023-01-13T05:48:40.701Z,90.97
2023-01-13T05:49:42.879Z,91.22
2023-01-13T05:50:46.401Z,91.08
2023-01-13T05:51:49.005Z,91.20
2023-01-13T05:52:51.409Z,91.39
2023-01-13T05:53:55.598Z,91.35
2023-01-13T05:54:58.031Z,91.30
2023-01-13T05:56:02.481Z,91.11
2023-01-13T05:57:04.976Z,91.50
2023-01-13T05:58:12.131Z,91.49
2023-01-13T05:59:14.944Z,91.31
2023-01-13T06:00:18.901Z,91.44
2023-01-13T06:01:21.440Z,91.25
2023-01-13T06:02:24.190Z,91.36
2023-01-13T06:03:26.757Z,91.10
2023-01-13T06:04:29.331Z,91.48
2023-01-13T06:05:33.817Z,91.32
2023-01-13T06:06:36.560Z,91.32
2023-01-13T06:07:39.327Z,91.83
2023-01-13T06:08:41.470Z,91.64
2023-01-13T06:09:44.625Z,91.40
2023-01-13T06:10:49.514Z,91.55
2023-01-13T06:11:52.014Z,91.51
2023-01-13T08:01:37.535Z,92.89
2023-01-13T08:03:00.056Z,93.66
2023-01-13T08:04:05.786Z,94.25
2023-01-13T08:05:13.227Z,95.23
2023-01-13T08:06:16.592Z,94.47
2023-01-13T08:07:19.580Z,94.42
2023-01-13T08:08:22.713Z,93.60
2023-01-13T08:09:25.274Z,93.21
2023-01-13T08:10:27.622Z,92.95
2023-01-13T08:11:30.637Z,92.16
2023-01-13T08:12:55.915Z,91.99
2023-01-13T08:13:57.292Z,93.78
2023-01-13T08:14:59.783Z,93.34
2023-01-13T08:16:07.909Z,93.11
2023-01-13T08:17:10.353Z,92.91
2023-01-13T08:18:13.935Z,91.96
2023-01-13T08:19:15.921Z,91.65
2023-01-13T08:20:19.652Z,92.32
2023-01-13T08:21:21.802Z,92.09
2023-01-13T08:22:24.130Z,90.64
2023-01-13T08:23:26.057Z,90.33
2023-01-13T08:24:28.163Z,89.92
2023-01-13T08:25:31.628Z,90.57
2023-01-13T08:26:33.711Z,93.78
2023-01-13T08:27:35.915Z,94.25
2023-01-13T08:28:39.846Z,93.99
2023-01-13T08:29:42.451Z,93.96
2023-01-13T08:30:45.366Z,91.85
2023-01-13T08:31:47.964Z,92.61
2023-01-13T08:32:50.663Z,92.61
2023-01-13T08:33:52.804Z,93.03
2023-01-13T08:34:55.017Z,93.36
2023-01-13T08:35:58.063Z,92.56
2023-01-13T08:37:00.328Z,91.71
2023-01-13T08:38:02.991Z,91.14
2023-01-13T08:39:08.584Z,91.55
2023-01-13T08:40:19.987Z,90.25
2023-01-13T08:41:46.849Z,89.68
2023-01-13T08:42:50.273Z,89.80
2023-01-13T08:43:53.288Z,89.74
2023-01-13T08:44:57.872Z,89.99
2023-01-13T08:46:04.234Z,89.91
2023-01-13T08:47:06.353Z,90.04
2023-01-13T08:48:08.731Z,90.10
2023-01-13T08:49:12.248Z,90.58
2023-01-13T08:50:15.374Z,90.38
2023-01-13T08:51:17.624Z,90.04
2023-01-13T08:52:20.165Z,90.67
2023-01-13T08:53:22.348Z,90.42
2023-01-13T08:54:25.692Z,90.73
2023-01-13T08:55:29.004Z,90.81
2023-01-13T08:56:35.019Z,91.10
2023-01-13T08:57:36.443Z,91.10
2023-01-13T08:58:40.640Z,90.97
2023-01-13T08:59:43.474Z,90.80
2023-01-13T09:00:46.303Z,90.96
2023-01-13T09:01:49.339Z,90.98
2023-01-13T09:02:51.744Z,91.09
2023-01-13T09:03:54.884Z,91.32
2023-01-13T09:04:57.267Z,91.43
2023-01-13T09:05:59.379Z,91.22
2023-01-13T09:07:02.359Z,91.38
2023-01-13T09:08:04.635Z,91.70
2023-01-13T09:09:07.676Z,91.81
2023-01-13T09:10:11.813Z,91.83
2023-01-13T09:11:43.274Z,91.77
2023-01-13T09:13:03.894Z,91.99
2023-01-13T09:14:06.260Z,92.50
2023-01-13T09:15:09.401Z,91.81
2023-01-13T09:16:11.824Z,91.24
2023-01-13T09:17:14.336Z,90.94
2023-01-13T09:18:16.692Z,90.63
2023-01-13T09:19:19.826Z,90.50
2023-01-13T09:20:22.635Z,90.46
2023-01-13T09:21:26.125Z,91.06
2023-01-13T09:22:28.555Z,91.41
2023-01-13T09:23:31.023Z,91.44
2023-01-13T09:24:33.372Z,91.25
2023-01-13T09:25:39.149Z,91.31
2023-01-13T09:26:42.608Z,91.49
2023-01-13T09:27:44.974Z,91.84
2023-01-13T09:28:47.296Z,91.46
2023-01-13T09:29:49.887Z,91.28
2023-01-13T09:30:53.750Z,91.26
2023-01-13T09:31:57.571Z,91.22
2023-01-13T09:33:18.899Z,90.67
2023-01-13T09:34:39.871Z,90.97
2023-01-13T09:35:42.519Z,90.87
2023-01-13T09:36:45.060Z,91.29
2023-01-13T09:37:48.827Z,91.11
2023-01-13T09:38:52.138Z,91.31
2023-01-13T09:39:55.887Z,91.21
2023-01-13T09:40:58.109Z,91.57
2023-01-13T09:42:39.295Z,91.17
2023-01-13T09:45:06.779Z,91.61
2023-01-13T09:46:17.973Z,91.64
2023-01-13T09:47:40.528Z,91.29
2023-01-13T09:48:51.677Z,91.10
2023-01-13T09:50:09.574Z,90.92
2023-01-13T09:51:30.183Z,90.64
2023-01-13T09:52:32.646Z,90.74
2023-01-13T09:53:41.204Z,90.54
2023-01-13T09:54:46.160Z,90.26
2023-01-13T09:55:49.028Z,89.93
2023-01-13T09:56:52.556Z,89.96
2023-01-13T09:57:55.126Z,89.43
2023-01-13T09:58:58.054Z,89.21
2023-01-13T10:00:00.411Z,89.34
2023-01-13T10:01:24.459Z,89.48
2023-01-13T10:02:34.555Z,89.91
2023-01-13T10:03:36.756Z,90.22
2023-01-13T10:04:39.336Z,89.85
2023-01-13T10:05:45.645Z,90.08
2023-01-13T10:06:51.542Z,89.84
2023-01-13T10:08:06.705Z,89.83
2023-01-13T10:09:16.299Z,89.69
2023-01-13T10:10:23.002Z,89.32
2023-01-13T10:11:50.348Z,89.30
2023-01-13T16:16:22.045Z,91.37
2023-01-13T16:17:27.907Z,90.62
2023-01-13T16:18:30.374Z,90.41
2023-01-13T16:19:33.071Z,89.96
2023-01-13T16:20:36.048Z,90.37
2023-01-13T16:21:38.433Z,90.20
2023-01-13T16:22:40.679Z,90.20
2023-01-13T16:23:42.940Z,89.92
2023-01-13T16:24:46.544Z,89.63
2023-01-13T16:25:50.437Z,88.96
2023-01-13T16:26:52.885Z,89.08
2023-01-13T16:27:54.904Z,88.47
2023-01-13T16:28:57.768Z,88.36
2023-01-13T16:29:59.818Z,88.23
2023-01-13T16:31:05.612Z,89.00
2023-01-13T16:32:07.870Z,89.18
2023-01-13T16:33:10.873Z,89.25
2023-01-13T16:34:12.952Z,89.24
2023-01-13T16:35:16.339Z,88.41
2023-01-13T16:36:20.607Z,88.80
2023-01-13T16:37:25.885Z,89.23
2023-01-13T16:38:28.675Z,89.40
2023-01-13T16:39:30.588Z,88.19
2023-01-13T16:40:35.287Z,87.81
2023-01-13T16:41:38.276Z,87.39
2023-01-13T16:42:40.237Z,88.04
2023-01-13T16:43:43.276Z,87.77
2023-01-13T16:44:47.319Z,88.42
2023-01-13T16:45:49.885Z,88.66
2023-01-13T16:46:52.762Z,88.83
2023-01-13T16:47:55.289Z,88.77
2023-01-13T16:49:01.070Z,88.72
2023-01-13T16:50:03.652Z,89.02
2023-01-13T16:51:06.193Z,88.54
2023-01-13T16:52:10.403Z,88.28
2023-01-13T16:53:13.054Z,89.00
2023-01-13T16:54:16.136Z,89.10
2023-01-13T16:55:18.288Z,88.93
2023-01-13T16:56:28.931Z,89.02
2023-01-13T16:57:30.966Z,89.33
2023-01-13T16:58:33.560Z,89.05
2023-01-13T16:59:37.777Z,89.29
2023-01-13T17:00:42.381Z,89.30
2023-01-13T17:01:45.986Z,89.84
2023-01-13T17:02:48.680Z,90.00
2023-01-13T17:03:51.803Z,89.56
2023-01-13T17:04:54.197Z,89.33
2023-01-13T17:05:56.771Z,89.73
2023-01-13T17:07:02.639Z,89.16
2023-01-13T17:08:06.075Z,89.38
2023-01-13T17:09:11.995Z,88.72
2023-01-13T17:10:17.549Z,88.87
2023-01-13T17:11:20.334Z,88.69
2023-01-13T17:12:22.645Z,88.37
2023-01-13T17:13:24.879Z,88.41
2023-01-13T17:14:28.198Z,88.70
2023-01-13T17:15:30.826Z,88.82
2023-01-13T17:16:34.897Z,88.93
2023-01-13T17:17:37.481Z,88.70
2023-01-13T17:18:40.027Z,88.63
2023-01-13T17:19:42.261Z,88.85
2023-01-13T17:20:45.543Z,88.35
2023-01-13T17:21:50.416Z,88.06
2023-01-13T17:22:58.221Z,88.67
2023-01-13T17:23:57.199Z,89.25
2023-01-13T17:24:59.906Z,89.27
2023-01-13T17:26:02.196Z,89.14
2023-01-13T17:27:04.354Z,89.72
2023-01-13T17:28:06.958Z,89.56
2023-01-13T17:29:19.148Z,89.75
2023-01-13T17:30:21.818Z,89.81
2023-01-13T17:31:23.844Z,89.88
2023-01-13T17:32:26.141Z,89.48
2023-01-13T17:33:30.055Z,89.78
2023-01-13T17:34:32.201Z,90.04
2023-01-13T17:35:34.321Z,90.06
2023-01-13T17:36:36.592Z,90.34
2023-01-13T17:37:39.699Z,90.60
2023-01-13T17:38:43.286Z,90.13
2023-01-13T17:39:47.926Z,90.25
2023-01-13T17:40:50.912Z,89.82
2023-01-13T17:41:55.343Z,90.05
2023-01-13T17:42:57.749Z,89.87
2023-01-13T17:44:00.971Z,89.82
2023-01-13T17:45:03.807Z,89.53
2023-01-13T17:46:12.096Z,89.71
2023-01-13T17:47:14.816Z,89.75
2023-01-13T17:48:18.249Z,89.75
2023-01-13T17:49:21.861Z,89.96
2023-01-13T17:50:27.223Z,89.99
2023-01-13T17:51:29.674Z,90.01
2023-01-13T17:52:34.530Z,90.01
2023-01-13T17:53:39.499Z,90.20
2023-01-13T17:54:43.192Z,90.56
2023-01-13T18:06:18.334Z,91.34
2023-01-13T18:07:20.842Z,91.41
2023-01-13T22:02:00.356Z,91.23
2023-01-13T22:03:04.347Z,91.49
2023-01-13T22:04:12.364Z,91.37
2023-01-13T22:05:17.096Z,91.13
2023-01-13T22:06:19.626Z,91.50
2023-01-13T22:07:21.623Z,91.60
2023-01-13T22:08:25.061Z,90.66
2023-01-13T22:09:29.773Z,90.76
2023-01-13T22:10:32.218Z,90.56
2023-01-13T22:11:35.350Z,90.70
2023-01-13T22:12:38.897Z,90.03
2023-01-13T22:13:59.680Z,89.88
2023-01-13T22:15:02.721Z,89.50
2023-01-13T22:16:05.797Z,90.12
2023-01-13T22:17:07.798Z,90.03
2023-01-13T22:18:09.982Z,89.82
2023-01-13T22:19:12.096Z,89.80
2023-01-13T22:20:19.400Z,89.72
2023-01-13T22:21:19.553Z,90.13
2023-01-13T22:22:21.937Z,89.32
2023-01-13T22:23:23.934Z,89.63
2023-01-13T22:24:26.062Z,89.37
2023-01-13T22:25:28.145Z,89.18
2023-01-13T22:26:31.764Z,88.76
2023-01-13T22:27:37.995Z,88.64
2023-01-13T22:28:42.619Z,88.68
2023-01-13T22:29:46.733Z,88.91
2023-01-13T22:30:51.552Z,88.81
2023-01-13T22:31:54.210Z,88.92
2023-01-13T22:32:57.320Z,88.87
2023-01-13T22:33:59.467Z,88.99
2023-01-13T22:35:02.329Z,88.68
2023-01-13T22:36:05.859Z,89.09
2023-01-13T22:37:08.497Z,88.89
2023-01-13T22:38:12.411Z,89.38
2023-01-13T22:39:14.413Z,88.95
2023-01-13T22:40:17.235Z,89.02
2023-01-13T22:41:20.061Z,89.40
2023-01-13T22:42:21.976Z,89.43
2023-01-13T22:43:24.716Z,90.04
2023-01-13T22:44:26.922Z,90.04
2023-01-13T22:45:29.064Z,88.70
2023-01-13T22:46:30.998Z,88.66
2023-01-13T22:47:33.808Z,88.66
2023-01-13T22:48:36.969Z,88.57
2023-01-13T22:49:41.189Z,88.15
2023-01-13T22:50:43.770Z,88.19
2023-01-13T22:51:46.080Z,88.35
2023-01-13T22:52:48.119Z,88.80
2023-01-13T22:53:50.652Z,88.82
2023-01-13T22:54:52.593Z,88.98
2023-01-13T22:55:58.935Z,88.17
2023-01-13T22:57:01.119Z,88.17
2023-01-13T22:58:03.131Z,88.30
2023-01-13T22:59:09.009Z,88.13
2023-01-13T23:00:13.950Z,88.29
2023-01-13T23:01:17.398Z,88.04
2023-01-13T23:02:19.757Z,88.40
2023-01-13T23:03:23.874Z,87.78
2023-01-13T23:04:26.180Z,87.97
2023-01-13T23:05:28.503Z,88.12
2023-01-13T23:06:33.008Z,88.06
2023-01-13T23:07:35.600Z,88.48
2023-01-13T23:08:37.689Z,88.52
2023-01-13T23:09:39.744Z,88.51
2023-01-13T23:10:42.084Z,88.80
2023-01-13T23:11:47.709Z,88.99
2023-01-13T23:12:51.609Z,89.05
2023-01-13T23:13:59.156Z,89.09
2023-01-13T23:15:01.233Z,89.26
2023-01-13T23:16:08.941Z,89.29
2023-01-13T23:17:11.161Z,89.43
2023-01-13T23:18:13.272Z,88.86
2023-01-13T23:19:15.484Z,88.70
2023-01-13T23:20:18.741Z,89.26
2023-01-13T23:21:25.465Z,89.27
2023-01-13T23:22:27.538Z,89.45
2023-01-13T23:23:29.960Z,88.94
2023-01-13T23:24:32.143Z,88.85
2023-01-13T23:25:34.381Z,88.54
2023-01-13T23:26:36.988Z,88.86
2023-01-13T23:27:39.218Z,88.98
2023-01-13T23:28:42.408Z,88.72
2023-01-13T23:29:45.076Z,89.03
2023-01-13T23:30:47.847Z,88.53
2023-01-13T23:31:49.831Z,88.49
2023-01-13T23:32:51.769Z,88.68
2023-01-13T23:33:53.695Z,88.90
2023-01-13T23:34:56.346Z,88.53
2023-01-13T23:36:01.216Z,88.53
2023-01-13T23:37:03.574Z,88.83
2023-01-13T23:38:05.858Z,88.86
2023-01-13T23:39:08.537Z,88.97
2023-01-13T23:40:13.008Z,89.23
2023-01-13T23:41:18.636Z,89.34
2023-01-13T23:42:20.734Z,89.69
2023-01-13T23:43:25.527Z,88.78
2023-01-13T23:44:28.769Z,89.20
2023-01-13T23:45:31.988Z,89.31
2023-01-13T23:46:35.164Z,89.09
2023-01-13T23:47:37.299Z,89.40
2023-01-13T23:48:39.554Z,89.04
2023-01-13T23:49:41.485Z,89.46
2023-01-13T23:50:44.720Z,89.68
2023-01-13T23:51:51.840Z,89.65
2023-01-13T23:52:53.976Z,89.45
2023-01-13T23:53:56.243Z,89.74
2023-01-13T23:54:58.704Z,90.01
2023-01-13T23:56:02.227Z,90.66
2023-01-13T23:57:04.462Z,89.99
2023-01-13T23:58:06.303Z,90.12
2023-01-13T23:59:08.838Z,90.06
